Balch Springs, Texas
Current Conditions -  °F | °C
As of 1:50 PM on Thursday 18 Dec 2014 (Local Time) from KHQZ Reporting Station
Haze Haze  
Wind Chill: 46°   Ceiling: 400
Heat Index: 46°   Visibility: 5mi
Dew Point: 45°   Wind: 0mph
Humidity: 93%   Direction: NA
Pressure: 30.12"   Gusts: NA
Location:  32.73°N, 96.62°W
Report Text: KHQZ 181950Z 00000KT 5SM BR OVC004 08/07 A3012
Loading
Personal Weather Stations






























Interactive Weather Map New forecast layout! Learn more

10-Day Weather Forecast

Advertisements
Track Severe Weather on mobile